Details From MTPP - TOUSSAINT LOUVERTURE INTL
To MDJB - Dr Joaquin Balaguer Intl
Flight Number -
Tags decoded
Created
Modified
Stats Distance 145 nm / 269 km
Max Altitude 0 ft / 0 m
Waypoints 5
Social Downloads 1
Likes 0
Share VATSIM

Download

Looking for another format? Having issues loading an existing format? Contact us
Advertisement - Login to hide

Notes

Requested: MTPP ETBOD G633 OKOSO TUBAL W34 MDJB

Route

MTPP ETBOD G633 TUBAL MDJB

ID Type Via Altitude Latitude Longitude Leg Dist Tot Dist Heading (true) Name
O MTPP APT - 0 ft / 0 m 18.58005˚ -72.29254˚ - 0 nm - TOUSSAINT LOUVERTURE INTL
ETBOD FIX - 0 ft / 0 m 18.51667˚ -71.88333˚ 23 nm 23 nm 99° / 99° -
OKOSO FIX G633 (AWY-LO) 0 ft / 0 m 18.32306˚ -70.54750˚ 76 nm 100 nm 98° / 99° -
TUBAL FIX G633 (AWY-LO) 0 ft / 0 m 18.26089˚ -70.13211˚ 23 nm 124 nm 99° / 99° -
O MDJB APT - 0 ft / 0 m 18.57251˚ -69.98561˚ 20 nm 145 nm 24° / 24° Dr Joaquin Balaguer Intl

Altitude Profile

Advertisement - Login to hide

MTPP

Details ICAO MTPP (PAP)
Name TOUSSAINT LOUVERTURE INTL
Region Haiti
Timezone America/Port-au-Prince (UTC-4.0)
Stats Elevation 122 ft / 37 m (AMSL)
Location 18.580051° -72.292540°
Runways 1
Magnetic Variation 10.229° W

METAR

MTPP 211300Z 10016KT 9999 FEW024 29/22 Q1013 A2994

Decode

TAF

TAF MTPP 211100Z 2112/2212 10008KT 8000 FEW020 BECMG 2113/2117 09010G20KT PROB30 TEMPO 2122/2201 24006KT 4800 -SHRA FEW024CB SCT040 FM220200 11008KT 7000 SCT030

Decode

Departure Runways

ID Width Length Bearing (true) Bearing (mag) Surface Threshold Offset Overrun Length
10 141 ft / 43 m 9,963 ft / 3,037 m 86.96° 97.19° Asphalt 0 ft / 0 m 0 ft / 0 m
28 141 ft / 43 m 9,963 ft / 3,037 m 266.97° 277.20° Asphalt 0 ft / 0 m 0 ft / 0 m

MDJB

Details ICAO MDJB (JBQ)
Name Dr Joaquin Balaguer Intl
Region Dominican Republic
Timezone America/Santo_Domingo (UTC-4.0)
Stats Elevation 98 ft / 30 m (AMSL)
Location 18.572512° -69.985608°
Runways 1
Magnetic Variation 11.424° W

METAR

MDJB 211300Z 00000KT 9999 SCT018 SCT070 27/24 Q1017

Decode

TAF

Not found

Destination Runways

ID Width Length Bearing (true) Bearing (mag) Surface Threshold Offset Overrun Length
01 100 ft / 30 m 5,448 ft / 1,661 m 6.40° 17.82° Asphalt 0 ft / 0 m 90 ft / 27 m
19 100 ft / 30 m 5,448 ft / 1,661 m 186.40° 197.82° Asphalt 0 ft / 0 m 105 ft / 32 m

Popular Alternatives